Houston's Hourly Summary for Saturday, May 12, 2018
Hour Temp
(f)
RH
(%)
Solar Rad.
(MJ/m2)
Rainfall
(in)
Wind
(mph)
5/12/2018 12:00 AM 75 80 0 0 4.1
5/12/2018 1:00 AM 75 81 0 0 2.93
5/12/2018 2:00 AM 75 83 0 0 1.72
5/12/2018 3:00 AM 75 82 0 0 2.61
5/12/2018 4:00 AM 75 83 0 0 2.1
5/12/2018 5:00 AM 74 84 0 0 2.4
5/12/2018 6:00 AM 73 86 0 0 1.3
5/12/2018 7:00 AM 73 86 0.04 0 1.29
5/12/2018 8:00 AM 74 79 0.42 0 2.84
5/12/2018 9:00 AM 77 71 1.03 0 4.44
5/12/2018 10:00 AM 79 67 1.1 0 4.21
5/12/2018 11:00 AM 83 53 2.28 0 6.52
5/12/2018 12:00 PM 85 51 2.97 0 6.95
5/12/2018 1:00 PM 86 50 3.1 0 7.29
5/12/2018 2:00 PM 87 46 3.22 0 7.22
5/12/2018 3:00 PM 87 46 2.88 0 7.53
5/12/2018 4:00 PM 87 46 2.66 0 7.72
5/12/2018 5:00 PM 86 46 2.15 0 7.69
5/12/2018 6:00 PM 86 49 1.61 0 6.66
5/12/2018 7:00 PM 84 52 0.87 0 7.42
5/12/2018 8:00 PM 81 59 0.19 0 6.06
5/12/2018 9:00 PM 79 69 0 0 4.75
5/12/2018 10:00 PM 77 76 0 0 4.77
5/12/2018 11:00 PM 76 79 0 0 2.67
Data Summary 79 66 24.52 0.00 4.72